Time;durP1;ratioP1;P1;durP2;ratioP2;P2;SDS_P1;SDS_P2;PMS_P1;PMS_P2;Temp;Humidity;BMP_temperature;BMP_pressure;BME280_temperature;BME280_humidity;BME280_pressure;Samples;Min_cycle;Max_cycle;Signal;HPM_P1;HPM_P2
2023/08/11 00:01:58;;;;;;;3.40;1.27;;;22.90;1.00;;;;;;4906043;29;20497;-44
2023/08/11 00:04:25;;;;;;;2.92;1.55;;;22.90;1.00;;;;;;4898002;29;20119;-44
2023/08/11 00:06:52;;;;;;;2.67;1.60;;;22.90;1.00;;;;;;4898352;29;20037;-43
2023/08/11 00:09:19;;;;;;;3.10;1.95;;;22.90;1.00;;;;;;4897899;29;20072;-43
2023/08/11 00:11:46;;;;;;;2.35;1.42;;;22.90;1.00;;;;;;4897878;29;20128;-48
2023/08/11 00:14:13;;;;;;;3.05;1.27;;;22.90;1.00;;;;;;4897808;29;20409;-47
2023/08/11 00:16:40;;;;;;;2.45;1.33;;;22.90;1.00;;;;;;4897282;29;20071;-46
2023/08/11 00:19:07;;;;;;;3.40;1.17;;;22.90;1.00;;;;;;4881176;29;20040;-45
2023/08/11 00:21:34;;;;;;;2.90;1.30;;;22.90;1.00;;;;;;4897835;29;20128;-46
2023/08/11 00:24:01;;;;;;;3.83;1.65;;;22.80;1.00;;;;;;4897819;29;20115;-45
2023/08/11 00:26:30;;;;;;;3.28;1.92;;;22.90;1.00;;;;;;4897633;29;20064;-46
2023/08/11 00:28:57;;;;;;;2.30;1.23;;;22.80;1.00;;;;;;4897599;29;20045;-43
2023/08/11 00:31:24;;;;;;;2.55;1.20;;;22.90;1.00;;;;;;4880763;29;20072;-43
2023/08/11 00:33:51;;;;;;;3.17;1.42;;;22.90;1.00;;;;;;4897669;29;20036;-46
2023/08/11 00:36:19;;;;;;;3.40;1.33;;;22.90;1.00;;;;;;4888537;29;20531;-44
2023/08/11 00:38:47;;;;;;;1.48;1.15;;;22.80;1.00;;;;;;4897233;29;20044;-44
2023/08/11 00:41:16;;;;;;;3.20;1.17;;;22.80;1.00;;;;;;4897360;29;20048;-44
2023/08/11 00:43:43;;;;;;;2.22;1.40;;;22.80;1.00;;;;;;4880656;29;20100;-47
2023/08/11 00:46:11;;;;;;;2.38;1.35;;;22.80;1.00;;;;;;4897380;29;20045;-44
2023/08/11 00:48:40;;;;;;;2.30;1.02;;;22.80;1.00;;;;;;4899214;29;20052;-44
2023/08/11 00:51:09;;;;;;;2.22;1.13;;;22.80;1.00;;;;;;4902990;29;20048;-43
2023/08/11 00:53:36;;;;;;;2.58;1.20;;;22.80;1.00;;;;;;4880279;29;20100;-46
2023/08/11 00:56:04;;;;;;;1.90;1.40;;;22.80;1.00;;;;;;4896669;29;20040;-44
2023/08/11 00:58:32;;;;;;;2.90;1.50;;;22.80;1.00;;;;;;4897045;29;20116;-43
2023/08/11 01:00:59;;;;;;;3.30;1.40;;;22.80;1.00;;;;;;4877002;29;20037;-45
2023/08/11 01:03:26;;;;;;;1.98;1.25;;;22.80;1.00;;;;;;4893963;29;20560;-45
2023/08/11 01:06:19;;;;;;;1.80;1.20;;;22.80;1.00;;;;;;4880328;29;20497;-46
2023/08/11 01:09:06;;;;;;;3.55;1.63;;;22.80;1.00;;;;;;4879670;29;20143;-47
2023/08/11 01:11:40;;;;;;;2.35;1.50;;;22.80;1.00;;;;;;4879924;29;20059;-45
2023/08/11 01:14:30;;;;;;;2.95;1.27;;;22.80;1.00;;;;;;4880255;29;20044;-45
2023/08/11 01:16:59;;;;;;;2.15;1.63;;;22.80;1.00;;;;;;4880238;29;20040;-48
2023/08/11 01:19:35;;;;;;;1.95;1.33;;;22.80;1.00;;;;;;4880142;29;20056;-44
2023/08/11 01:22:10;;;;;;;2.60;1.45;;;22.80;1.00;;;;;;4880324;29;20052;-43
2023/08/11 01:24:37;;;;;;;3.92;2.08;;;22.80;1.00;;;;;;4896903;29;20079;-44
2023/08/11 01:27:05;;;;;;;1.95;1.33;;;22.80;1.00;;;;;;4879910;29;20041;-46
2023/08/11 01:29:32;;;;;;;3.17;1.50;;;22.70;1.00;;;;;;4895198;29;20044;-45
2023/08/11 01:31:59;;;;;;;2.17;1.13;;;22.80;1.00;;;;;;4896770;29;20124;-44
2023/08/11 01:34:26;;;;;;;3.38;1.67;;;22.80;1.00;;;;;;4896721;29;20045;-43
2023/08/11 01:37:03;;;;;;;2.30;1.38;;;22.80;1.00;;;;;;4892522;29;20081;-43
2023/08/11 01:39:32;;;;;;;1.73;1.40;;;22.80;1.00;;;;;;4879993;29;20056;-44
2023/08/11 01:41:59;;;;;;;3.15;1.63;;;22.70;1.00;;;;;;4896676;29;20051;-44
2023/08/11 01:44:28;;;;;;;1.80;1.30;;;22.70;1.00;;;;;;4896704;29;20060;-43
2023/08/11 01:46:56;;;;;;;2.45;1.38;;;22.70;1.00;;;;;;4896643;29;20044;-47
2023/08/11 01:49:25;;;;;;;4.57;1.13;;;22.70;1.00;;;;;;4896618;29;20045;-44
2023/08/11 01:51:52;;;;;;;3.15;1.63;;;22.70;1.00;;;;;;4879598;29;20048;-47
2023/08/11 01:54:19;;;;;;;2.53;1.33;;;22.70;1.00;;;;;;4896448;29;20516;-48
2023/08/11 01:56:49;;;;;;;2.85;1.52;;;22.70;1.00;;;;;;4896528;29;20051;-43
2023/08/11 01:59:17;;;;;;;3.00;1.73;;;22.70;1.00;;;;;;4879812;29;20576;-44
2023/08/11 02:01:44;;;;;;;3.47;2.20;;;22.70;1.00;;;;;;4895150;29;20423;-43
2023/08/11 02:04:12;;;;;;;2.33;1.15;;;22.70;1.00;;;;;;4879685;29;20420;-44
2023/08/11 02:06:39;;;;;;;2.38;1.60;;;22.70;1.00;;;;;;4879374;29;20483;-44
2023/08/11 02:09:09;;;;;;;1.88;1.33;;;22.70;1.00;;;;;;4895267;29;20072;-47
2023/08/11 02:11:37;;;;;;;2.15;1.52;;;22.70;1.00;;;;;;4896400;29;20048;-44
2023/08/11 02:14:05;;;;;;;2.95;1.65;;;22.70;1.00;;;;;;4879538;29;20135;-46
2023/08/11 02:16:33;;;;;;;2.67;1.75;;;22.70;1.00;;;;;;4895182;29;20066;-47
2023/08/11 02:19:00;;;;;;;2.58;1.60;;;22.70;1.00;;;;;;4896340;29;20068;-43
2023/08/11 02:21:28;;;;;;;2.05;1.30;;;22.70;1.00;;;;;;4896154;29;20051;-45
2023/08/11 02:23:54;;;;;;;2.08;1.40;;;22.70;1.00;;;;;;4879530;29;20044;-45
2023/08/11 02:26:22;;;;;;;2.78;1.20;;;22.70;1.00;;;;;;4896358;29;20084;-46
2023/08/11 02:28:49;;;;;;;3.47;1.73;;;22.70;1.00;;;;;;4896215;29;20072;-46
2023/08/11 02:31:17;;;;;;;2.90;1.65;;;22.70;1.00;;;;;;4895976;29;20127;-44
2023/08/11 02:33:45;;;;;;;4.50;1.40;;;22.70;1.00;;;;;;4897862;29;20493;-55
2023/08/11 02:45:15;;;;;;;2.72;1.73;;;22.70;1.00;;;;;;4906714;29;20052;-43
2023/08/11 02:47:42;;;;;;;3.20;1.35;;;22.60;1.00;;;;;;4899584;29;20113;-46
2023/08/11 02:50:10;;;;;;;2.50;1.40;;;22.60;1.00;;;;;;4882434;29;20053;-43
2023/08/11 02:52:37;;;;;;;2.60;1.67;;;22.60;1.00;;;;;;4899404;29;20433;-46
2023/08/11 02:55:06;;;;;;;2.75;1.20;;;22.60;1.00;;;;;;4899381;29;20453;-43
2023/08/11 02:57:34;;;;;;;2.25;1.50;;;22.60;1.00;;;;;;4883086;29;20053;-44
2023/08/11 03:00:08;;;;;;;2.58;1.65;;;22.60;1.00;;;;;;4900174;29;20064;-48
2023/08/11 03:02:35;;;;;;;2.78;1.65;;;22.60;1.00;;;;;;4900827;29;20404;-49
2023/08/11 03:05:03;;;;;;;1.92;1.33;;;22.60;1.00;;;;;;4883315;29;20072;-47
2023/08/11 03:07:31;;;;;;;2.58;1.98;;;22.60;1.00;;;;;;4883563;29;20112;-43
2023/08/11 03:09:58;;;;;;;1.92;1.40;;;22.60;1.00;;;;;;4897182;29;20045;-46
2023/08/11 03:12:25;;;;;;;2.38;1.58;;;22.60;1.00;;;;;;4878283;29;20123;-43
2023/08/11 03:14:52;;;;;;;2.45;1.40;;;22.60;1.00;;;;;;4899881;29;20464;-46
2023/08/11 03:17:19;;;;;;;2.35;1.27;;;22.60;1.00;;;;;;4899919;29;20159;-44
2023/08/11 03:19:46;;;;;;;1.92;1.40;;;22.60;1.00;;;;;;4899412;29;20037;-46
2023/08/11 03:22:13;;;;;;;2.95;1.90;;;22.60;1.00;;;;;;4882798;29;20049;-47
2023/08/11 03:24:40;;;;;;;2.78;1.73;;;22.60;1.00;;;;;;4882869;29;20048;-44
2023/08/11 03:27:07;;;;;;;1.85;1.30;;;22.60;1.00;;;;;;4899635;29;20504;-44
2023/08/11 03:29:34;;;;;;;3.17;1.55;;;22.60;1.00;;;;;;4882416;29;20053;-45
2023/08/11 03:32:01;;;;;;;2.17;1.40;;;22.60;1.00;;;;;;4875418;29;20528;-44
2023/08/11 03:34:30;;;;;;;1.88;1.40;;;22.60;1.00;;;;;;4882608;29;20097;-44
2023/08/11 03:36:58;;;;;;;2.50;1.55;;;22.60;1.00;;;;;;4883050;29;20048;-45
2023/08/11 03:39:25;;;;;;;2.88;1.40;;;22.60;1.00;;;;;;4887519;29;20458;-44
2023/08/11 03:41:52;;;;;;;2.58;1.25;;;22.60;1.00;;;;;;4907435;29;20040;-43
2023/08/11 03:44:21;;;;;;;2.50;1.45;;;22.60;1.00;;;;;;4882824;29;20088;-45
2023/08/11 03:46:49;;;;;;;2.05;1.40;;;22.60;1.00;;;;;;4884007;29;20060;-45
2023/08/11 03:49:17;;;;;;;2.97;1.65;;;22.60;1.00;;;;;;4888112;29;20108;-44
2023/08/11 03:51:44;;;;;;;2.42;1.50;;;22.50;1.00;;;;;;4881856;29;20048;-46
2023/08/11 03:54:11;;;;;;;3.55;1.83;;;22.50;1.00;;;;;;4882540;29;20339;-46
2023/08/11 03:56:39;;;;;;;3.22;1.63;;;22.50;1.00;;;;;;4882884;29;20044;-47
2023/08/11 03:59:06;;;;;;;2.35;1.60;;;22.50;1.00;;;;;;4882473;29;20043;-44
2023/08/11 04:01:33;;;;;;;1.98;1.30;;;22.50;1.00;;;;;;4882414;29;20047;-46
2023/08/11 04:04:00;;;;;;;1.95;1.40;;;22.50;1.00;;;;;;4882135;29;20439;-43
2023/08/11 04:06:32;;;;;;;2.75;1.52;;;22.50;1.00;;;;;;4875474;29;20060;-49
2023/08/11 04:09:00;;;;;;;4.05;3.20;;;22.50;1.00;;;;;;4895117;29;20049;-48
2023/08/11 04:11:29;;;;;;;7.20;3.67;;;22.50;1.00;;;;;;4898550;29;20124;-44
2023/08/11 04:13:56;;;;;;;6.00;4.15;;;22.50;1.00;;;;;;4895251;29;20121;-46
2023/08/11 04:16:23;;;;;;;7.82;4.53;;;22.50;1.00;;;;;;4879759;29;20086;-46
2023/08/11 04:18:50;;;;;;;7.60;4.50;;;22.40;1.00;;;;;;4876548;29;20041;-45
2023/08/11 04:21:17;;;;;;;6.60;4.18;;;22.40;1.00;;;;;;4895082;29;20049;-45
2023/08/11 04:23:44;;;;;;;6.20;4.65;;;22.40;1.00;;;;;;4877101;29;20081;-49
2023/08/11 04:26:12;;;;;;;6.32;4.45;;;22.40;1.00;;;;;;4878793;29;20045;-45
2023/08/11 04:28:41;;;;;;;6.18;4.40;;;22.40;1.00;;;;;;4882129;29;20084;-47
2023/08/11 04:31:09;;;;;;;5.32;4.78;;;22.30;1.00;;;;;;4874701;29;20342;-46
2023/08/11 04:33:37;;;;;;;8.38;4.88;;;22.30;1.00;;;;;;4882308;29;20495;-46
2023/08/11 04:36:04;;;;;;;8.70;5.65;;;22.30;1.00;;;;;;4878185;29;20072;-44
2023/08/11 04:38:31;;;;;;;6.28;4.28;;;22.30;1.00;;;;;;4896133;29;20424;-45
2023/08/11 04:40:59;;;;;;;8.35;5.43;;;22.30;1.00;;;;;;4879081;29;20552;-43
2023/08/11 04:43:26;;;;;;;7.07;3.97;;;22.30;1.00;;;;;;4894185;29;20045;-47
2023/08/11 04:45:54;;;;;;;5.88;4.43;;;22.30;1.00;;;;;;4877723;29;20574;-48
2023/08/11 04:48:22;;;;;;;9.27;4.53;;;22.20;1.00;;;;;;4879112;29;20048;-44
2023/08/11 04:50:52;;;;;;;5.72;3.38;;;22.20;1.00;;;;;;4877941;29;20147;-48
2023/08/11 04:53:20;;;;;;;6.88;4.15;;;22.20;1.00;;;;;;4873804;29;20056;-44
2023/08/11 04:55:48;;;;;;;7.40;4.82;;;22.20;1.00;;;;;;4869011;29;20562;-45
2023/08/11 04:58:15;;;;;;;7.32;4.38;;;22.20;1.00;;;;;;4882081;29;20131;-49
2023/08/11 05:00:43;;;;;;;5.50;4.53;;;22.20;1.00;;;;;;4874850;29;20052;-46
2023/08/11 05:03:10;;;;;;;5.55;4.15;;;22.20;1.00;;;;;;4888898;29;20045;-46
2023/08/11 05:05:37;;;;;;;7.63;4.45;;;22.20;1.00;;;;;;4889465;29;20046;-46
2023/08/11 05:08:04;;;;;;;8.38;5.32;;;22.20;1.00;;;;;;4892206;29;20521;-45
2023/08/11 05:10:31;;;;;;;10.60;5.70;;;22.20;1.00;;;;;;4897825;29;20040;-48
2023/08/11 05:12:58;;;;;;;5.80;3.83;;;22.10;1.00;;;;;;4897951;29;20429;-45
2023/08/11 05:15:26;;;;;;;6.95;4.53;;;22.10;1.00;;;;;;4895203;29;20077;-46
2023/08/11 05:17:53;;;;;;;6.53;4.10;;;22.10;1.00;;;;;;4896231;29;20041;-45
2023/08/11 05:20:21;;;;;;;7.45;3.78;;;22.10;1.00;;;;;;4890270;29;20503;-44
2023/08/11 05:22:48;;;;;;;8.20;3.97;;;22.10;1.00;;;;;;4894211;29;20044;-47
2023/08/11 05:25:15;;;;;;;6.80;4.50;;;22.10;1.00;;;;;;4896350;29;20067;-47
2023/08/11 05:27:42;;;;;;;7.63;4.32;;;22.10;1.00;;;;;;4895017;29;20049;-44
2023/08/11 05:30:09;;;;;;;6.88;3.72;;;22.10;1.00;;;;;;4890258;29;20059;-44
2023/08/11 05:32:36;;;;;;;5.07;4.32;;;22.10;1.00;;;;;;4898183;29;20119;-47
2023/08/11 05:35:03;;;;;;;5.93;3.78;;;22.10;1.00;;;;;;4897365;29;20040;-45
2023/08/11 05:37:30;;;;;;;6.47;4.38;;;22.10;1.00;;;;;;4897763;29;20505;-48
2023/08/11 05:39:57;;;;;;;7.25;3.70;;;22.10;1.00;;;;;;4889167;29;20041;-46
2023/08/11 05:42:24;;;;;;;6.10;4.00;;;22.00;1.00;;;;;;4896866;29;20060;-47
2023/08/11 05:44:51;;;;;;;9.52;4.10;;;22.10;1.00;;;;;;4879931;29;20520;-49
2023/08/11 05:47:18;;;;;;;4.57;3.25;;;22.10;1.00;;;;;;4896889;29;20071;-49
2023/08/11 05:49:45;;;;;;;12.75;4.28;;;22.10;1.00;;;;;;4892783;29;20079;-47
2023/08/11 05:52:12;;;;;;;5.35;3.78;;;22.10;1.00;;;;;;4878808;29;20115;-50
2023/08/11 05:54:39;;;;;;;7.68;3.95;;;22.10;1.00;;;;;;4896647;29;20045;-51
2023/08/11 05:57:05;;;;;;;8.43;4.00;;;22.10;1.00;;;;;;4889444;29;20053;-45
2023/08/11 05:59:33;;;;;;;8.73;4.72;;;22.10;1.00;;;;;;4894211;29;20084;-48
2023/08/11 06:01:59;;;;;;;14.60;4.93;;;22.10;1.00;;;;;;4893648;29;20036;-44
2023/08/11 06:04:26;;;;;;;8.75;4.40;;;22.10;1.00;;;;;;4891519;29;20050;-48
2023/08/11 06:06:53;;;;;;;7.40;4.40;;;22.10;1.00;;;;;;4891437;29;20419;-45
2023/08/11 06:09:21;;;;;;;11.38;3.90;;;22.10;1.00;;;;;;4893198;29;20048;-46
2023/08/11 06:11:48;;;;;;;7.13;4.60;;;22.10;1.00;;;;;;4891111;29;20112;-45
2023/08/11 06:14:15;;;;;;;15.40;4.32;;;22.10;1.00;;;;;;4880381;29;20041;-46
2023/08/11 06:16:41;;;;;;;8.50;3.67;;;22.10;1.00;;;;;;4889970;29;20500;-46
2023/08/11 06:19:08;;;;;;;7.03;3.60;;;22.10;1.00;;;;;;4881690;29;20401;-49
2023/08/11 06:21:35;;;;;;;5.20;3.38;;;22.10;1.00;;;;;;4882433;29;20068;-47
2023/08/11 06:24:03;;;;;;;10.18;2.90;;;22.10;1.00;;;;;;4881893;29;20080;-45
2023/08/11 06:26:29;;;;;;;4.50;2.60;;;22.20;1.00;;;;;;4882169;29;20045;-45
2023/08/11 06:28:56;;;;;;;10.63;3.15;;;22.10;1.00;;;;;;4889903;29;20116;-46
2023/08/11 06:31:23;;;;;;;7.75;2.72;;;22.20;1.00;;;;;;4885575;29;20040;-45
2023/08/11 06:33:50;;;;;;;10.10;2.60;;;22.20;1.00;;;;;;4887652;29;20088;-48
2023/08/11 06:36:17;;;;;;;9.55;3.78;;;22.20;1.00;;;;;;4877743;29;20033;-49
2023/08/11 06:38:44;;;;;;;8.40;2.80;;;22.20;1.00;;;;;;4880990;29;20069;-52
2023/08/11 06:41:11;;;;;;;4.93;2.90;;;22.20;1.00;;;;;;4883712;29;20033;-44
2023/08/11 06:43:39;;;;;;;6.50;2.50;;;22.20;1.00;;;;;;4893135;29;20047;-48
2023/08/11 06:46:06;;;;;;;5.65;2.67;;;22.20;1.00;;;;;;4892384;29;20049;-44
2023/08/11 06:48:33;;;;;;;5.70;3.30;;;22.20;1.00;;;;;;4888312;29;20041;-48
2023/08/11 06:51:00;;;;;;;5.57;2.78;;;22.20;1.00;;;;;;4890141;29;20089;-49
2023/08/11 06:53:27;;;;;;;5.90;3.47;;;22.20;1.00;;;;;;4896153;29;20040;-47
2023/08/11 06:55:54;;;;;;;7.28;3.67;;;22.30;1.00;;;;;;4887258;29;20468;-47
2023/08/11 06:58:21;;;;;;;8.25;3.45;;;22.30;1.00;;;;;;4895119;29;20063;-45
2023/08/11 07:00:51;;;;;;;10.57;4.10;;;22.30;1.00;;;;;;4889507;29;20357;-47
2023/08/11 07:03:18;;;;;;;10.60;4.57;;;22.30;1.00;;;;;;4898377;29;20096;-47
2023/08/11 07:05:45;;;;;;;7.85;3.88;;;22.30;1.00;;;;;;4886201;29;20065;-46
2023/08/11 07:08:12;;;;;;;7.82;3.20;;;22.30;1.00;;;;;;4890977;29;20045;-49
2023/08/11 07:10:39;;;;;;;6.50;3.78;;;22.30;1.00;;;;;;4887139;29;20121;-46
2023/08/11 07:13:06;;;;;;;7.53;3.10;;;22.30;1.00;;;;;;4889058;29;20096;-45
2023/08/11 07:15:33;;;;;;;7.07;3.50;;;22.30;1.00;;;;;;4881503;29;20101;-49
2023/08/11 07:18:04;;;;;;;9.52;3.00;;;22.40;1.00;;;;;;4888982;29;20397;-48
2023/08/11 07:20:31;;;;;;;4.43;2.90;;;22.30;1.00;;;;;;4881459;29;20120;-49
2023/08/11 07:22:58;;;;;;;8.43;3.85;;;22.40;1.00;;;;;;4889504;29;20037;-46
2023/08/11 07:25:25;;;;;;;5.00;2.83;;;22.40;1.00;;;;;;4881694;29;20453;-51
2023/08/11 07:27:51;;;;;;;8.38;3.25;;;22.30;1.00;;;;;;4881232;29;20128;-49
2023/08/11 07:30:18;;;;;;;9.88;3.13;;;22.40;1.00;;;;;;4881464;29;20055;-49
2023/08/11 07:32:45;;;;;;;6.72;3.22;;;22.40;1.00;;;;;;4895256;29;20068;-45
2023/08/11 07:35:12;;;;;;;7.97;3.33;;;22.40;1.00;;;;;;4890351;29;20040;-49
2023/08/11 07:37:39;;;;;;;8.38;3.28;;;22.40;1.00;;;;;;4881548;29;20041;-52
2023/08/11 07:40:07;;;;;;;6.03;2.78;;;22.40;1.00;;;;;;4889590;29;20041;-51
2023/08/11 07:42:34;;;;;;;4.43;2.63;;;22.40;1.00;;;;;;4887984;29;20093;-45
2023/08/11 07:45:01;;;;;;;14.77;2.70;;;22.40;1.00;;;;;;4888666;29;20044;-49
2023/08/11 07:47:28;;;;;;;4.60;2.70;;;22.40;1.00;;;;;;4881159;29;20112;-48
2023/08/11 07:49:55;;;;;;;5.63;2.92;;;22.40;1.00;;;;;;4888785;29;20406;-52
2023/08/11 07:52:24;;;;;;;4.30;3.00;;;22.40;1.00;;;;;;4881103;29;20064;-47
2023/08/11 07:54:50;;;;;;;7.05;2.47;;;22.40;1.00;;;;;;4881134;29;20048;-50
2023/08/11 07:57:17;;;;;;;7.60;2.22;;;22.40;1.00;;;;;;4882652;29;20124;-47
2023/08/11 07:59:44;;;;;;;4.18;2.63;;;22.40;1.00;;;;;;4886269;29;20045;-46
2023/08/11 08:02:13;;;;;;;6.85;3.03;;;22.40;1.00;;;;;;4880935;29;20041;-51
2023/08/11 08:04:40;;;;;;;6.22;2.45;;;22.40;1.00;;;;;;4880852;29;20052;-47
2023/08/11 08:07:06;;;;;;;4.97;2.47;;;22.50;1.00;;;;;;4889236;29;20076;-49
2023/08/11 08:09:34;;;;;;;4.53;3.10;;;22.40;1.00;;;;;;4895216;29;20120;-52
2023/08/11 08:12:04;;;;;;;5.40;2.65;;;22.50;1.00;;;;;;4880846;29;20057;-45
2023/08/11 08:14:31;;;;;;;4.70;2.67;;;22.50;1.00;;;;;;4880139;29;20123;-48
2023/08/11 08:17:01;;;;;;;6.15;3.05;;;22.50;1.00;;;;;;4888175;29;20037;-47
2023/08/11 08:19:28;;;;;;;3.20;2.15;;;22.50;1.00;;;;;;4888214;29;20131;-45
2023/08/11 08:21:55;;;;;;;3.75;2.47;;;22.50;1.00;;;;;;4880212;29;20056;-47
2023/08/11 08:24:21;;;;;;;4.03;2.10;;;22.50;1.00;;;;;;4890509;29;20052;-50
2023/08/11 08:26:48;;;;;;;7.93;2.75;;;22.50;1.00;;;;;;4885445;29;20124;-48
2023/08/11 08:29:15;;;;;;;5.68;2.80;;;22.50;1.00;;;;;;4881535;29;20493;-47
2023/08/11 08:31:42;;;;;;;4.70;2.75;;;22.50;1.00;;;;;;4898945;29;20119;-49
2023/08/11 08:34:09;;;;;;;7.07;2.20;;;22.50;1.00;;;;;;4882378;29;20049;-45
2023/08/11 08:36:36;;;;;;;14.98;3.40;;;22.50;1.00;;;;;;4883823;29;20404;-44
2023/08/11 08:39:03;;;;;;;4.28;2.55;;;22.50;1.00;;;;;;4891178;29;20032;-52
2023/08/11 08:41:37;;;;;;;4.07;2.33;;;22.50;1.00;;;;;;4879901;29;20113;-51
2023/08/11 08:44:04;;;;;;;3.22;2.30;;;22.50;1.00;;;;;;4880442;29;20064;-50
2023/08/11 08:46:32;;;;;;;4.80;2.50;;;22.50;1.00;;;;;;4883827;29;20041;-46
2023/08/11 08:49:09;;;;;;;5.53;2.85;;;22.50;1.00;;;;;;4891084;29;20404;-47
2023/08/11 08:51:39;;;;;;;4.72;2.53;;;22.50;1.00;;;;;;4879956;29;20060;-45
2023/08/11 08:54:09;;;;;;;5.10;2.72;;;22.50;1.00;;;;;;4887712;29;20092;-45
2023/08/11 08:56:38;;;;;;;6.18;2.85;;;22.50;1.00;;;;;;4887647;29;20049;-48
2023/08/11 08:59:06;;;;;;;3.03;2.10;;;22.50;1.00;;;;;;4895252;29;20520;-48
2023/08/11 09:01:35;;;;;;;6.53;2.95;;;22.50;1.00;;;;;;4880540;29;20359;-49
2023/08/11 09:04:03;;;;;;;4.82;2.33;;;22.50;1.00;;;;;;4886824;29;20045;-48
2023/08/11 09:06:31;;;;;;;2.63;2.03;;;22.50;1.00;;;;;;4887679;29;20124;-46
2023/08/11 09:08:59;;;;;;;4.47;2.80;;;22.50;1.00;;;;;;4880075;29;20083;-51
2023/08/11 09:11:26;;;;;;;3.65;2.28;;;22.50;1.00;;;;;;4890087;29;20467;-47
2023/08/11 09:13:53;;;;;;;4.00;2.38;;;22.50;1.00;;;;;;4884912;29;20037;-52
2023/08/11 09:16:23;;;;;;;5.25;2.92;;;22.50;1.00;;;;;;4879930;29;20071;-47
2023/08/11 09:18:52;;;;;;;6.05;2.45;;;22.50;1.00;;;;;;4880087;29;20049;-50
2023/08/11 09:21:23;;;;;;;3.58;2.13;;;22.60;1.00;;;;;;4879099;29;20640;-46
2023/08/11 09:23:52;;;;;;;3.47;2.13;;;22.50;1.00;;;;;;4887275;29;20468;-46
2023/08/11 09:26:21;;;;;;;5.15;2.22;;;22.50;1.00;;;;;;4879855;29;20137;-49
2023/08/11 09:28:49;;;;;;;5.53;2.22;;;22.50;1.00;;;;;;4879383;29;20045;-48
2023/08/11 09:31:20;;;;;;;5.28;2.50;;;22.60;1.00;;;;;;4887123;29;20417;-49
2023/08/11 09:33:48;;;;;;;5.05;2.72;;;22.60;1.00;;;;;;4884597;29;20060;-49
2023/08/11 09:36:19;;;;;;;4.68;3.28;;;22.60;1.00;;;;;;4890053;29;20418;-46
2023/08/11 09:38:47;;;;;;;5.18;2.70;;;22.60;1.00;;;;;;4887271;29;20112;-51
2023/08/11 09:41:16;;;;;;;5.20;2.50;;;22.60;1.00;;;;;;4879257;29;20045;-48
2023/08/11 09:43:48;;;;;;;3.47;2.22;;;22.60;1.00;;;;;;4883771;29;20072;-50
2023/08/11 09:46:15;;;;;;;5.32;2.58;;;22.60;1.00;;;;;;4890085;29;20052;-44
2023/08/11 09:48:54;;;;;;;3.88;2.05;;;22.60;1.00;;;;;;4888089;29;20128;-47
2023/08/11 09:51:21;;;;;;;5.50;2.20;;;22.60;1.00;;;;;;4898812;29;20058;-51
2023/08/11 09:53:49;;;;;;;5.65;2.50;;;22.60;1.00;;;;;;4882967;29;20394;-46
2023/08/11 09:56:17;;;;;;;6.80;2.40;;;22.60;1.00;;;;;;4883268;29;20438;-51
2023/08/11 09:58:47;;;;;;;3.15;2.63;;;22.60;1.00;;;;;;4887107;29;20064;-45
2023/08/11 10:01:16;;;;;;;2.70;1.67;;;22.60;1.00;;;;;;4893403;29;20055;-48
2023/08/11 10:03:50;;;;;;;;;;;22.60;1.00;;;;;;4895885;29;20045;-50
2023/08/11 10:06:22;;;;;;;3.72;2.25;;;22.60;1.00;;;;;;4885785;29;19924;-49
2023/08/11 10:08:51;;;;;;;4.87;2.77;;;22.60;1.00;;;;;;4882931;29;20544;-45
2023/08/11 10:11:21;;;;;;;5.65;3.40;;;22.60;1.00;;;;;;4882717;29;20291;-44
2023/08/11 10:13:48;;;;;;;4.55;2.47;;;22.60;1.00;;;;;;4882873;29;20055;-48
2023/08/11 10:16:16;;;;;;;4.00;2.47;;;22.60;1.00;;;;;;4883056;29;20040;-49
2023/08/11 10:18:44;;;;;;;3.83;2.17;;;22.60;1.00;;;;;;4901258;29;20392;-45
2023/08/11 10:21:12;;;;;;;4.60;2.35;;;22.60;1.00;;;;;;4886657;29;20041;-48
2023/08/11 10:23:39;;;;;;;3.55;2.20;;;22.60;1.00;;;;;;4890266;29;20054;-49
2023/08/11 10:26:07;;;;;;;4.32;2.28;;;22.70;1.00;;;;;;4882580;29;20055;-54
2023/08/11 10:28:34;;;;;;;3.75;2.50;;;22.70;1.00;;;;;;4892727;29;20049;-52
2023/08/11 10:31:04;;;;;;;3.92;2.30;;;22.60;1.00;;;;;;4887524;29;20057;-50
2023/08/11 10:33:33;;;;;;;6.20;2.58;;;22.70;1.00;;;;;;4882809;29;20128;-47
2023/08/11 10:36:01;;;;;;;3.65;2.28;;;22.70;1.00;;;;;;4890322;29;20037;-48
2023/08/11 10:38:30;;;;;;;7.05;2.97;;;22.70;1.00;;;;;;4882236;29;20092;-52
2023/08/11 10:41:05;;;;;;;3.75;2.08;;;22.60;1.00;;;;;;4890101;29;20035;-52
2023/08/11 10:43:41;;;;;;;4.07;2.28;;;22.70;1.00;;;;;;4890188;29;20079;-52
2023/08/11 10:46:27;;;;;;;3.70;1.98;;;22.70;1.00;;;;;;4890157;29;20041;-50
2023/08/11 10:48:58;;;;;;;4.38;2.50;;;22.70;1.00;;;;;;4882311;29;20037;-47
2023/08/11 10:51:39;;;;;;;7.53;2.38;;;22.70;1.00;;;;;;4883083;29;20056;-50
2023/08/11 10:54:06;;;;;;;3.20;1.77;;;22.70;1.00;;;;;;4894708;29;20434;-47
2023/08/11 10:56:44;;;;;;;3.45;2.13;;;22.70;1.00;;;;;;4889804;29;20045;-47
2023/08/11 10:59:24;;;;;;;5.63;2.58;;;22.70;1.00;;;;;;4888055;29;20053;-48
2023/08/11 11:01:52;;;;;;;2.00;1.35;;;22.70;1.00;;;;;;4882037;29;20252;-45
2023/08/11 11:04:21;;;;;;;5.65;2.22;;;22.70;1.00;;;;;;4882114;29;20055;-52
2023/08/11 11:06:50;;;;;;;4.57;1.65;;;22.70;1.00;;;;;;4880293;29;20101;-50
2023/08/11 11:09:18;;;;;;;2.53;1.70;;;22.70;1.00;;;;;;4881986;29;20525;-51
2023/08/11 11:11:51;;;;;;;3.63;2.33;;;22.70;1.00;;;;;;4889693;29;20080;-51
2023/08/11 11:14:18;;;;;;;6.65;2.42;;;22.70;1.00;;;;;;4889690;29;20048;-50
2023/08/11 11:16:46;;;;;;;5.05;2.15;;;22.70;1.00;;;;;;4892781;29;20043;-52
2023/08/11 11:19:13;;;;;;;3.95;2.08;;;22.70;1.00;;;;;;4885978;29;20056;-50
2023/08/11 11:21:40;;;;;;;4.80;2.70;;;22.70;1.00;;;;;;4892214;29;20100;-52
2023/08/11 11:24:08;;;;;;;4.22;2.55;;;22.70;1.00;;;;;;4887259;29;20049;-50
2023/08/11 11:26:35;;;;;;;3.25;2.20;;;22.70;1.00;;;;;;4883864;29;20053;-52
2023/08/11 11:29:07;;;;;;;3.67;2.28;;;22.70;1.00;;;;;;4887392;29;20533;-49
2023/08/11 11:31:38;;;;;;;3.20;1.73;;;22.70;1.00;;;;;;4889380;29;20413;-52
2023/08/11 11:34:05;;;;;;;4.03;2.67;;;22.70;1.00;;;;;;4889679;29;20049;-50
2023/08/11 11:36:33;;;;;;;2.63;1.90;;;22.70;1.00;;;;;;4881777;29;20096;-51
2023/08/11 11:39:00;;;;;;;4.25;2.00;;;22.70;1.00;;;;;;4881984;29;20033;-51
2023/08/11 11:41:31;;;;;;;3.90;2.40;;;22.70;1.00;;;;;;4890654;29;20128;-51
2023/08/11 11:43:59;;;;;;;4.50;2.47;;;22.80;1.00;;;;;;4888091;29;20068;-51
2023/08/11 11:46:30;;;;;;;3.25;2.22;;;22.80;1.00;;;;;;4882032;29;20045;-52
2023/08/11 11:48:58;;;;;;;5.03;2.33;;;22.80;1.00;;;;;;4887980;29;20037;-52
2023/08/11 11:51:26;;;;;;;4.82;2.17;;;22.80;1.00;;;;;;4881021;29;20053;-50
2023/08/11 11:54:00;;;;;;;2.97;1.92;;;22.80;1.00;;;;;;4881452;29;20077;-49
2023/08/11 11:56:28;;;;;;;2.67;1.80;;;22.80;1.00;;;;;;4889048;29;20163;-52
2023/08/11 11:58:59;;;;;;;3.28;2.15;;;22.80;1.00;;;;;;4881282;29;20073;-49
2023/08/11 12:01:27;;;;;;;7.43;2.40;;;22.80;1.00;;;;;;4880474;29;20049;-49
2023/08/11 12:03:59;;;;;;;5.18;2.45;;;22.80;1.00;;;;;;4880643;29;20084;-45
2023/08/11 12:06:29;;;;;;;3.58;2.35;;;22.80;1.00;;;;;;4888580;29;20059;-50
2023/08/11 12:09:08;;;;;;;3.13;1.77;;;22.80;1.00;;;;;;4880855;29;20045;-52
2023/08/11 12:11:39;;;;;;;4.72;1.83;;;22.80;1.00;;;;;;4896854;29;20053;-52
2023/08/11 12:14:06;;;;;;;3.33;2.33;;;22.80;1.00;;;;;;4886801;29;20552;-50
2023/08/11 12:16:34;;;;;;;2.95;1.90;;;22.80;1.00;;;;;;4880598;29;20045;-51
2023/08/11 12:19:02;;;;;;;4.50;2.58;;;22.80;1.00;;;;;;4888359;29;20041;-52
2023/08/11 12:21:29;;;;;;;5.15;1.98;;;22.80;1.00;;;;;;4880434;29;20045;-50
2023/08/11 12:23:56;;;;;;;3.00;1.65;;;22.80;1.00;;;;;;4888510;29;20086;-47
2023/08/11 12:26:23;;;;;;;4.10;2.15;;;22.80;1.00;;;;;;4880759;29;20124;-50
2023/08/11 12:28:49;;;;;;;3.00;1.95;;;22.80;1.00;;;;;;4887524;29;20486;-47
2023/08/11 12:31:16;;;;;;;3.67;2.20;;;22.80;1.00;;;;;;4880283;29;20048;-45
2023/08/11 12:33:43;;;;;;;3.10;2.03;;;22.80;1.00;;;;;;4863722;29;20128;-51
2023/08/11 12:36:10;;;;;;;4.45;2.40;;;22.80;1.00;;;;;;4880749;29;20446;-48
2023/08/11 12:38:37;;;;;;;3.25;1.80;;;22.80;1.00;;;;;;4887609;29;20072;-47
2023/08/11 12:41:04;;;;;;;3.00;2.13;;;22.80;1.00;;;;;;4879946;29;20051;-48
2023/08/11 12:43:30;;;;;;;3.08;2.03;;;22.80;1.00;;;;;;4880017;29;20053;-50
2023/08/11 12:45:57;;;;;;;3.95;2.20;;;22.80;1.00;;;;;;4880334;29;20493;-47
2023/08/11 12:48:24;;;;;;;4.60;2.30;;;22.80;1.00;;;;;;4880393;29;20450;-47
2023/08/11 12:50:51;;;;;;;4.35;2.05;;;22.80;1.00;;;;;;4879783;29;20045;-48
2023/08/11 12:53:18;;;;;;;3.78;1.98;;;22.80;1.00;;;;;;4886403;29;20079;-47
2023/08/11 12:55:45;;;;;;;2.75;1.40;;;22.80;1.00;;;;;;4887755;29;20049;-51
2023/08/11 12:58:12;;;;;;;4.03;2.28;;;22.80;1.00;;;;;;4868723;29;20051;-51
2023/08/11 13:00:42;;;;;;;2.67;1.60;;;22.80;1.00;;;;;;4882715;29;20101;-46
2023/08/11 13:03:08;;;;;;;4.18;2.70;;;22.80;1.00;;;;;;4890503;29;20431;-47
2023/08/11 13:05:36;;;;;;;3.08;2.03;;;22.80;1.00;;;;;;4895784;29;20059;-48
2023/08/11 13:08:03;;;;;;;2.50;1.63;;;22.80;1.00;;;;;;4887079;29;20133;-47
2023/08/11 13:10:29;;;;;;;4.10;2.00;;;22.90;1.00;;;;;;4886802;29;20128;-50
2023/08/11 13:12:56;;;;;;;2.22;1.65;;;22.80;1.00;;;;;;4879567;29;20041;-48